sensor_id;sensor_type;location;lat;lon;timestamp;temperature;humidity
26051;DHT22;13825;53.496;10.020;2024-01-16T00:01:57;0.00;1.00
26051;DHT22;13825;53.496;10.020;2024-01-16T00:04:24;0.10;1.00
26051;DHT22;13825;53.496;10.020;2024-01-16T00:06:52;0.10;1.00
26051;DHT22;13825;53.496;10.020;2024-01-16T00:09:18;0.10;1.00
26051;DHT22;13825;53.496;10.020;2024-01-16T00:11:45;0.10;1.00
26051;DHT22;13825;53.496;10.020;2024-01-16T00:14:12;0.00;1.00
26051;DHT22;13825;53.496;10.020;2024-01-16T00:16:43;-0.10;1.00
26051;DHT22;13825;53.496;10.020;2024-01-16T00:19:10;-0.10;1.00
26051;DHT22;13825;53.496;10.020;2024-01-16T00:21:38;-0.10;1.00
26051;DHT22;13825;53.496;10.020;2024-01-16T00:24:05;-0.20;1.00
26051;DHT22;13825;53.496;10.020;2024-01-16T00:26:32;-0.20;1.00
26051;DHT22;13825;53.496;10.020;2024-01-16T00:28:59;-0.30;1.00
26051;DHT22;13825;53.496;10.020;2024-01-16T00:31:26;-0.30;1.00
26051;DHT22;13825;53.496;10.020;2024-01-16T00:33:54;-0.20;1.00
26051;DHT22;13825;53.496;10.020;2024-01-16T00:36:20;-0.20;1.00
26051;DHT22;13825;53.496;10.020;2024-01-16T00:38:46;-0.10;1.00
26051;DHT22;13825;53.496;10.020;2024-01-16T00:41:13;-0.20;1.00
26051;DHT22;13825;53.496;10.020;2024-01-16T00:43:41;-0.30;1.00
26051;DHT22;13825;53.496;10.020;2024-01-16T00:46:07;-0.30;1.00
26051;DHT22;13825;53.496;10.020;2024-01-16T00:48:34;-0.30;1.00
26051;DHT22;13825;53.496;10.020;2024-01-16T00:51:03;-0.30;1.00
26051;DHT22;13825;53.496;10.020;2024-01-16T00:53:29;-0.30;1.00
26051;DHT22;13825;53.496;10.020;2024-01-16T00:55:56;-0.30;1.00
26051;DHT22;13825;53.496;10.020;2024-01-16T00:58:23;-0.40;1.00
26051;DHT22;13825;53.496;10.020;2024-01-16T01:00:50;-0.40;1.00
26051;DHT22;13825;53.496;10.020;2024-01-16T01:03:17;-0.50;1.00
26051;DHT22;13825;53.496;10.020;2024-01-16T01:05:45;-0.50;1.00
26051;DHT22;13825;53.496;10.020;2024-01-16T01:08:14;-0.50;1.00
26051;DHT22;13825;53.496;10.020;2024-01-16T01:10:40;-0.60;1.00
26051;DHT22;13825;53.496;10.020;2024-01-16T01:13:07;-0.50;1.00
26051;DHT22;13825;53.496;10.020;2024-01-16T01:15:34;-0.40;1.00
26051;DHT22;13825;53.496;10.020;2024-01-16T01:18:00;-0.40;1.00
26051;DHT22;13825;53.496;10.020;2024-01-16T01:20:26;-0.60;1.00
26051;DHT22;13825;53.496;10.020;2024-01-16T01:22:53;-0.70;1.00
26051;DHT22;13825;53.496;10.020;2024-01-16T01:25:21;-0.60;1.00
26051;DHT22;13825;53.496;10.020;2024-01-16T01:27:48;-0.70;1.00
26051;DHT22;13825;53.496;10.020;2024-01-16T01:30:15;-0.80;1.00
26051;DHT22;13825;53.496;10.020;2024-01-16T01:32:42;-0.80;1.00
26051;DHT22;13825;53.496;10.020;2024-01-16T01:35:09;-0.80;1.00
26051;DHT22;13825;53.496;10.020;2024-01-16T01:37:36;-0.80;1.00
26051;DHT22;13825;53.496;10.020;2024-01-16T01:40:03;-0.80;1.00
26051;DHT22;13825;53.496;10.020;2024-01-16T01:42:32;-0.90;1.00
26051;DHT22;13825;53.496;10.020;2024-01-16T01:44:58;-0.80;1.00
26051;DHT22;13825;53.496;10.020;2024-01-16T01:47:25;-0.80;1.00
26051;DHT22;13825;53.496;10.020;2024-01-16T01:49:52;-0.70;1.00
26051;DHT22;13825;53.496;10.020;2024-01-16T01:52:19;-0.60;1.00
26051;DHT22;13825;53.496;10.020;2024-01-16T01:54:46;-0.70;1.00
26051;DHT22;13825;53.496;10.020;2024-01-16T01:57:13;-0.60;1.00
26051;DHT22;13825;53.496;10.020;2024-01-16T01:59:41;-0.70;1.00
26051;DHT22;13825;53.496;10.020;2024-01-16T02:02:07;-0.50;1.00
26051;DHT22;13825;53.496;10.020;2024-01-16T02:04:34;-0.70;1.00
26051;DHT22;13825;53.496;10.020;2024-01-16T02:07:03;-0.60;1.00
26051;DHT22;13825;53.496;10.020;2024-01-16T02:09:31;-0.50;1.00
26051;DHT22;13825;53.496;10.020;2024-01-16T02:11:57;-0.60;1.00
26051;DHT22;13825;53.496;10.020;2024-01-16T02:14:24;-0.50;1.00
26051;DHT22;13825;53.496;10.020;2024-01-16T02:16:52;-0.60;1.00
26051;DHT22;13825;53.496;10.020;2024-01-16T02:19:19;-0.70;1.00
26051;DHT22;13825;53.496;10.020;2024-01-16T02:21:46;-0.70;99.90
26051;DHT22;13825;53.496;10.020;2024-01-16T02:24:15;-0.70;1.00
26051;DHT22;13825;53.496;10.020;2024-01-16T02:26:42;-0.70;1.00
26051;DHT22;13825;53.496;10.020;2024-01-16T02:29:09;-0.90;1.00
26051;DHT22;13825;53.496;10.020;2024-01-16T02:31:35;-0.80;99.90
26051;DHT22;13825;53.496;10.020;2024-01-16T02:34:02;-0.80;99.90
26051;DHT22;13825;53.496;10.020;2024-01-16T02:36:30;-0.90;99.90
26051;DHT22;13825;53.496;10.020;2024-01-16T02:38:57;-0.80;99.90
26051;DHT22;13825;53.496;10.020;2024-01-16T02:41:26;-0.90;99.90
26051;DHT22;13825;53.496;10.020;2024-01-16T02:43:53;-0.80;99.90
26051;DHT22;13825;53.496;10.020;2024-01-16T02:46:19;-0.80;99.90
26051;DHT22;13825;53.496;10.020;2024-01-16T02:48:46;-0.70;99.90
26051;DHT22;13825;53.496;10.020;2024-01-16T02:51:14;-0.90;99.90
26051;DHT22;13825;53.496;10.020;2024-01-16T02:53:41;-1.00;99.90
26051;DHT22;13825;53.496;10.020;2024-01-16T02:56:07;-1.10;99.90
26051;DHT22;13825;53.496;10.020;2024-01-16T02:58:36;-1.10;99.90
26051;DHT22;13825;53.496;10.020;2024-01-16T03:03:38;-1.30;99.90
26051;DHT22;13825;53.496;10.020;2024-01-16T03:06:05;-1.40;99.90
26051;DHT22;13825;53.496;10.020;2024-01-16T03:08:32;-1.50;99.90
26051;DHT22;13825;53.496;10.020;2024-01-16T03:10:59;-1.50;99.90
26051;DHT22;13825;53.496;10.020;2024-01-16T03:13:25;-1.60;99.90
26051;DHT22;13825;53.496;10.020;2024-01-16T03:15:54;-1.60;99.90
26051;DHT22;13825;53.496;10.020;2024-01-16T03:18:21;-1.90;99.90
26051;DHT22;13825;53.496;10.020;2024-01-16T03:20:47;-1.80;99.90
26051;DHT22;13825;53.496;10.020;2024-01-16T03:23:14;-1.30;99.90
26051;DHT22;13825;53.496;10.020;2024-01-16T03:25:41;-1.80;99.90
26051;DHT22;13825;53.496;10.020;2024-01-16T03:28:08;-1.50;99.90
26051;DHT22;13825;53.496;10.020;2024-01-16T03:30:36;-1.90;93.90
26051;DHT22;13825;53.496;10.020;2024-01-16T03:33:04;-1.50;79.40
26051;DHT22;13825;53.496;10.020;2024-01-16T03:35:31;-1.70;94.20
26051;DHT22;13825;53.496;10.020;2024-01-16T03:37:58;-1.90;47.40
26051;DHT22;13825;53.496;10.020;2024-01-16T03:40:25;-2.00;31.70
26051;DHT22;13825;53.496;10.020;2024-01-16T03:42:53;-1.90;36.30
26051;DHT22;13825;53.496;10.020;2024-01-16T03:45:21;-0.60;73.10
26051;DHT22;13825;53.496;10.020;2024-01-16T03:47:50;-1.80;99.90
26051;DHT22;13825;53.496;10.020;2024-01-16T03:50:20;-2.30;72.50
26051;DHT22;13825;53.496;10.020;2024-01-16T03:52:47;-2.30;99.90
26051;DHT22;13825;53.496;10.020;2024-01-16T03:55:14;-1.20;99.90
26051;DHT22;13825;53.496;10.020;2024-01-16T03:57:42;-2.10;99.90
26051;DHT22;13825;53.496;10.020;2024-01-16T04:00:11;-2.40;99.90
26051;DHT22;13825;53.496;10.020;2024-01-16T04:02:39;-2.10;99.90
26051;DHT22;13825;53.496;10.020;2024-01-16T04:05:07;-1.80;99.90
26051;DHT22;13825;53.496;10.020;2024-01-16T04:07:36;-2.60;99.90
26051;DHT22;13825;53.496;10.020;2024-01-16T04:10:06;-2.40;99.90
26051;DHT22;13825;53.496;10.020;2024-01-16T04:12:38;-2.30;99.90
26051;DHT22;13825;53.496;10.020;2024-01-16T04:15:19;-1.80;99.90
26051;DHT22;13825;53.496;10.020;2024-01-16T04:17:59;-2.20;99.90
26051;DHT22;13825;53.496;10.020;2024-01-16T04:34:53;-2.70;99.90
26051;DHT22;13825;53.496;10.020;2024-01-16T04:40:45;-1.80;1.00
26051;DHT22;13825;53.496;10.020;2024-01-16T04:44:26;-2.30;1.00
26051;DHT22;13825;53.496;10.020;2024-01-16T04:46:57;-1.40;1.00
26051;DHT22;13825;53.496;10.020;2024-01-16T05:37:28;-1.40;1.00
26051;DHT22;13825;53.496;10.020;2024-01-16T05:40:04;-0.90;1.00
26051;DHT22;13825;53.496;10.020;2024-01-16T05:45:44;-0.70;1.00
26051;DHT22;13825;53.496;10.020;2024-01-16T05:48:22;-0.90;1.00
26051;DHT22;13825;53.496;10.020;2024-01-16T05:51:01;-0.80;1.00
26051;DHT22;13825;53.496;10.020;2024-01-16T05:57:03;-1.30;1.00
26051;DHT22;13825;53.496;10.020;2024-01-16T05:59:49;-0.60;1.00
26051;DHT22;13825;53.496;10.020;2024-01-16T06:02:19;-0.90;1.00
26051;DHT22;13825;53.496;10.020;2024-01-16T06:05:08;-0.50;1.00
26051;DHT22;13825;53.496;10.020;2024-01-16T06:07:50;-0.60;1.00
26051;DHT22;13825;53.496;10.020;2024-01-16T06:10:28;-0.60;1.00
26051;DHT22;13825;53.496;10.020;2024-01-16T06:12:56;-0.50;1.00
26051;DHT22;13825;53.496;10.020;2024-01-16T06:15:57;-0.70;1.00
26051;DHT22;13825;53.496;10.020;2024-01-16T06:18:50;0.30;1.00
26051;DHT22;13825;53.496;10.020;2024-01-16T06:21:33;-1.00;1.00
26051;DHT22;13825;53.496;10.020;2024-01-16T06:24:10;0.10;1.00
26051;DHT22;13825;53.496;10.020;2024-01-16T06:26:55;-0.30;1.00
26051;DHT22;13825;53.496;10.020;2024-01-16T06:32:22;-0.20;1.00
26051;DHT22;13825;53.496;10.020;2024-01-16T06:35:04;-0.70;1.00
26051;DHT22;13825;53.496;10.020;2024-01-16T06:37:40;0.40;1.00
26051;DHT22;13825;53.496;10.020;2024-01-16T06:40:14;-0.80;1.00
26051;DHT22;13825;53.496;10.020;2024-01-16T06:42:52;-0.50;1.00
26051;DHT22;13825;53.496;10.020;2024-01-16T06:45:38;-0.50;1.00
26051;DHT22;13825;53.496;10.020;2024-01-16T06:48:24;-0.70;1.00
26051;DHT22;13825;53.496;10.020;2024-01-16T06:56:55;0.50;1.00
26051;DHT22;13825;53.496;10.020;2024-01-16T06:59:48;-0.60;1.00
26051;DHT22;13825;53.496;10.020;2024-01-16T07:35:36;-0.30;1.00
26051;DHT22;13825;53.496;10.020;2024-01-16T07:38:23;-0.50;1.00
26051;DHT22;13825;53.496;10.020;2024-01-16T07:40:56;0.80;1.00
26051;DHT22;13825;53.496;10.020;2024-01-16T07:43:58;-0.50;1.00
26051;DHT22;13825;53.496;10.020;2024-01-16T07:46:38;-0.80;1.00
26051;DHT22;13825;53.496;10.020;2024-01-16T08:01:35;-0.40;41.60
26051;DHT22;13825;53.496;10.020;2024-01-16T08:04:06;-0.50;81.10
26051;DHT22;13825;53.496;10.020;2024-01-16T08:06:33;0.70;9.80
26051;DHT22;13825;53.496;10.020;2024-01-16T08:09:06;-0.30;1.00
26051;DHT22;13825;53.496;10.020;2024-01-16T08:35:40;-0.10;99.90
26051;DHT22;13825;53.496;10.020;2024-01-16T08:38:12;-0.20;99.90
26051;DHT22;13825;53.496;10.020;2024-01-16T08:40:39;0.40;99.90
26051;DHT22;13825;53.496;10.020;2024-01-16T08:43:15;0.40;99.90
26051;DHT22;13825;53.496;10.020;2024-01-16T08:48:41;-0.10;99.90
26051;DHT22;13825;53.496;10.020;2024-01-16T09:00:21;-0.80;1.00
26051;DHT22;13825;53.496;10.020;2024-01-16T09:02:53;0.40;1.00
26051;DHT22;13825;53.496;10.020;2024-01-16T09:05:20;-0.20;1.00
26051;DHT22;13825;53.496;10.020;2024-01-16T09:07:50;0.60;1.00
26051;DHT22;13825;53.496;10.020;2024-01-16T09:10:29;0.30;1.00
26051;DHT22;13825;53.496;10.020;2024-01-16T09:18:41;0.10;99.90
26051;DHT22;13825;53.496;10.020;2024-01-16T09:21:29;1.30;99.90
26051;DHT22;13825;53.496;10.020;2024-01-16T09:23:57;0.30;99.90
26051;DHT22;13825;53.496;10.020;2024-01-16T09:26:24;0.40;99.90
26051;DHT22;13825;53.496;10.020;2024-01-16T09:32:01;-0.60;99.90
26051;DHT22;13825;53.496;10.020;2024-01-16T09:34:29;0.30;99.90
26051;DHT22;13825;53.496;10.020;2024-01-16T09:37:10;0.40;99.90
26051;DHT22;13825;53.496;10.020;2024-01-16T09:39:44;1.30;99.90
26051;DHT22;13825;53.496;10.020;2024-01-16T09:42:24;0.90;99.90
26051;DHT22;13825;53.496;10.020;2024-01-16T09:44:51;0.90;99.90
26051;DHT22;13825;53.496;10.020;2024-01-16T09:47:24;1.00;99.90
26051;DHT22;13825;53.496;10.020;2024-01-16T09:50:12;1.30;99.90
26051;DHT22;13825;53.496;10.020;2024-01-16T09:55:32;1.00;99.90
26051;DHT22;13825;53.496;10.020;2024-01-16T09:58:00;0.70;99.90
26051;DHT22;13825;53.496;10.020;2024-01-16T10:00:45;0.80;99.90
26051;DHT22;13825;53.496;10.020;2024-01-16T10:12:21;0.80;99.90
26051;DHT22;13825;53.496;10.020;2024-01-16T10:15:06;0.60;99.90
26051;DHT22;13825;53.496;10.020;2024-01-16T10:17:37;0.90;99.90
26051;DHT22;13825;53.496;10.020;2024-01-16T10:20:05;0.80;99.90
26051;DHT22;13825;53.496;10.020;2024-01-16T10:23:21;1.00;99.90
26051;DHT22;13825;53.496;10.020;2024-01-16T10:26:04;0.50;99.90
26051;DHT22;13825;53.496;10.020;2024-01-16T10:28:58;0.90;99.90
26051;DHT22;13825;53.496;10.020;2024-01-16T10:31:51;1.20;99.90
26051;DHT22;13825;53.496;10.020;2024-01-16T10:34:19;0.60;99.90
26051;DHT22;13825;53.496;10.020;2024-01-16T10:36:50;0.60;99.90
26051;DHT22;13825;53.496;10.020;2024-01-16T10:39:17;0.30;99.90
26051;DHT22;13825;53.496;10.020;2024-01-16T10:41:53;2.00;99.90
26051;DHT22;13825;53.496;10.020;2024-01-16T10:44:28;0.60;99.90
26051;DHT22;13825;53.496;10.020;2024-01-16T10:49:54;1.10;99.90
26051;DHT22;13825;53.496;10.020;2024-01-16T10:52:22;1.00;99.90
26051;DHT22;13825;53.496;10.020;2024-01-16T10:54:54;0.80;99.90
26051;DHT22;13825;53.496;10.020;2024-01-16T10:57:26;1.90;99.90
26051;DHT22;13825;53.496;10.020;2024-01-16T10:59:58;1.00;99.90
26051;DHT22;13825;53.496;10.020;2024-01-16T11:08:04;0.90;99.90
26051;DHT22;13825;53.496;10.020;2024-01-16T11:10:36;1.10;99.90
26051;DHT22;13825;53.496;10.020;2024-01-16T11:13:05;2.20;1.00
26051;DHT22;13825;53.496;10.020;2024-01-16T11:17:59;1.00;1.00
26051;DHT22;13825;53.496;10.020;2024-01-16T11:20:27;2.10;1.00
26051;DHT22;13825;53.496;10.020;2024-01-16T11:22:54;1.20;1.00
26051;DHT22;13825;53.496;10.020;2024-01-16T11:25:30;2.00;1.00
26051;DHT22;13825;53.496;10.020;2024-01-16T11:28:07;1.90;1.00
26051;DHT22;13825;53.496;10.020;2024-01-16T11:30:34;1.10;1.00
26051;DHT22;13825;53.496;10.020;2024-01-16T11:33:02;1.00;1.00
26051;DHT22;13825;53.496;10.020;2024-01-16T11:35:35;1.00;1.00
26051;DHT22;13825;53.496;10.020;2024-01-16T11:38:20;0.90;1.00
26051;DHT22;13825;53.496;10.020;2024-01-16T11:40:52;0.60;1.00
26051;DHT22;13825;53.496;10.020;2024-01-16T11:52:05;1.80;1.00
26051;DHT22;13825;53.496;10.020;2024-01-16T11:54:47;1.90;1.00
26051;DHT22;13825;53.496;10.020;2024-01-16T12:00:05;1.40;1.00
26051;DHT22;13825;53.496;10.020;2024-01-16T12:02:59;1.20;1.00
26051;DHT22;13825;53.496;10.020;2024-01-16T12:05:30;2.10;1.00
26051;DHT22;13825;53.496;10.020;2024-01-16T12:07:59;1.00;1.00
26051;DHT22;13825;53.496;10.020;2024-01-16T12:10:30;1.00;1.00
26051;DHT22;13825;53.496;10.020;2024-01-16T12:13:02;1.90;1.00
26051;DHT22;13825;53.496;10.020;2024-01-16T12:15:29;1.00;1.00
26051;DHT22;13825;53.496;10.020;2024-01-16T12:17:57;2.20;1.00
26051;DHT22;13825;53.496;10.020;2024-01-16T12:20:37;1.50;1.00
26051;DHT22;13825;53.496;10.020;2024-01-16T12:23:15;1.70;1.00
26051;DHT22;13825;53.496;10.020;2024-01-16T12:28:31;2.80;1.00
26051;DHT22;13825;53.496;10.020;2024-01-16T12:31:07;2.60;1.00
26051;DHT22;13825;53.496;10.020;2024-01-16T12:33:49;1.50;1.00
26051;DHT22;13825;53.496;10.020;2024-01-16T12:36:36;1.10;1.00
26051;DHT22;13825;53.496;10.020;2024-01-16T12:39:18;1.80;1.00
26051;DHT22;13825;53.496;10.020;2024-01-16T12:45:24;1.40;1.00
26051;DHT22;13825;53.496;10.020;2024-01-16T12:48:04;2.40;1.00
26051;DHT22;13825;53.496;10.020;2024-01-16T12:50:48;1.70;1.00
26051;DHT22;13825;53.496;10.020;2024-01-16T12:53:17;1.40;1.00
26051;DHT22;13825;53.496;10.020;2024-01-16T12:56:21;1.30;1.00
26051;DHT22;13825;53.496;10.020;2024-01-16T12:58:55;0.70;1.00
26051;DHT22;13825;53.496;10.020;2024-01-16T13:01:27;1.40;1.00
26051;DHT22;13825;53.496;10.020;2024-01-16T13:04:07;1.20;1.00
26051;DHT22;13825;53.496;10.020;2024-01-16T13:06:48;1.20;1.00
26051;DHT22;13825;53.496;10.020;2024-01-16T13:09:32;1.40;1.00
26051;DHT22;13825;53.496;10.020;2024-01-16T13:15:08;1.60;1.00
26051;DHT22;13825;53.496;10.020;2024-01-16T13:17:55;1.20;1.00
26051;DHT22;13825;53.496;10.020;2024-01-16T13:20:56;1.50;1.00
26051;DHT22;13825;53.496;10.020;2024-01-16T13:23:40;1.60;1.00
26051;DHT22;13825;53.496;10.020;2024-01-16T13:26:19;1.10;1.00
26051;DHT22;13825;53.496;10.020;2024-01-16T13:32:16;0.90;1.00
26051;DHT22;13825;53.496;10.020;2024-01-16T13:34:46;1.10;1.00
26051;DHT22;13825;53.496;10.020;2024-01-16T13:40:13;1.00;1.00
26051;DHT22;13825;53.496;10.020;2024-01-16T13:43:03;0.80;1.00
26051;DHT22;13825;53.496;10.020;2024-01-16T13:45:55;1.10;1.00
26051;DHT22;13825;53.496;10.020;2024-01-16T13:48:41;1.00;1.00
26051;DHT22;13825;53.496;10.020;2024-01-16T13:51:14;1.70;1.00
26051;DHT22;13825;53.496;10.020;2024-01-16T13:53:55;0.10;1.00
26051;DHT22;13825;53.496;10.020;2024-01-16T13:56:40;0.70;1.00
26051;DHT22;13825;53.496;10.020;2024-01-16T13:59:37;1.10;1.00
26051;DHT22;13825;53.496;10.020;2024-01-16T14:02:13;0.80;23.10
26051;DHT22;13825;53.496;10.020;2024-01-16T14:04:49;1.10;1.00
26051;DHT22;13825;53.496;10.020;2024-01-16T14:07:29;1.80;20.70
26051;DHT22;13825;53.496;10.020;2024-01-16T14:10:18;1.50;1.00
26051;DHT22;13825;53.496;10.020;2024-01-16T14:13:15;1.20;1.00
26051;DHT22;13825;53.496;10.020;2024-01-16T14:22:04;0.60;1.00
26051;DHT22;13825;53.496;10.020;2024-01-16T14:25:00;1.00;1.00
26051;DHT22;13825;53.496;10.020;2024-01-16T14:36:41;0.90;1.00
26051;DHT22;13825;53.496;10.020;2024-01-16T14:39:26;0.60;1.00
26051;DHT22;13825;53.496;10.020;2024-01-16T14:41:56;1.30;1.00
26051;DHT22;13825;53.496;10.020;2024-01-16T14:44:23;2.20;1.00
26051;DHT22;13825;53.496;10.020;2024-01-16T14:46:50;0.70;1.00
26051;DHT22;13825;53.496;10.020;2024-01-16T14:49:19;0.70;1.00
26051;DHT22;13825;53.496;10.020;2024-01-16T14:51:46;0.70;1.00
26051;DHT22;13825;53.496;10.020;2024-01-16T14:54:15;0.70;1.00
26051;DHT22;13825;53.496;10.020;2024-01-16T14:56:44;1.40;1.00
26051;DHT22;13825;53.496;10.020;2024-01-16T14:59:12;2.10;1.00
26051;DHT22;13825;53.496;10.020;2024-01-16T15:01:39;0.70;1.00
26051;DHT22;13825;53.496;10.020;2024-01-16T15:04:06;0.70;1.00
26051;DHT22;13825;53.496;10.020;2024-01-16T15:06:33;0.70;12.20
26051;DHT22;13825;53.496;10.020;2024-01-16T15:09:02;1.80;1.00
26051;DHT22;13825;53.496;10.020;2024-01-16T15:11:31;1.60;1.00
26051;DHT22;13825;53.496;10.020;2024-01-16T15:13:59;2.20;1.00
26051;DHT22;13825;53.496;10.020;2024-01-16T15:16:27;0.60;1.00
26051;DHT22;13825;53.496;10.020;2024-01-16T15:18:56;1.90;1.00
26051;DHT22;13825;53.496;10.020;2024-01-16T15:21:25;0.60;1.00
26051;DHT22;13825;53.496;10.020;2024-01-16T15:23:52;1.20;1.00
26051;DHT22;13825;53.496;10.020;2024-01-16T15:26:21;1.20;9.40
26051;DHT22;13825;53.496;10.020;2024-01-16T15:28:47;1.30;1.00
26051;DHT22;13825;53.496;10.020;2024-01-16T15:31:16;0.70;1.00
26051;DHT22;13825;53.496;10.020;2024-01-16T15:33:43;0.60;1.00
26051;DHT22;13825;53.496;10.020;2024-01-16T15:36:10;1.60;1.00
26051;DHT22;13825;53.496;10.020;2024-01-16T15:38:36;1.20;1.00
26051;DHT22;13825;53.496;10.020;2024-01-16T15:41:05;0.00;1.00
26051;DHT22;13825;53.496;10.020;2024-01-16T15:43:32;0.90;1.00
26051;DHT22;13825;53.496;10.020;2024-01-16T15:45:58;0.90;1.00
26051;DHT22;13825;53.496;10.020;2024-01-16T15:48:27;0.90;1.00
26051;DHT22;13825;53.496;10.020;2024-01-16T15:50:59;1.10;1.00
26051;DHT22;13825;53.496;10.020;2024-01-16T15:53:26;1.10;1.00
26051;DHT22;13825;53.496;10.020;2024-01-16T15:55:52;1.20;1.00
26051;DHT22;13825;53.496;10.020;2024-01-16T15:58:20;0.70;1.00
26051;DHT22;13825;53.496;10.020;2024-01-16T16:00:49;2.60;1.00
26051;DHT22;13825;53.496;10.020;2024-01-16T16:03:16;1.20;1.00
26051;DHT22;13825;53.496;10.020;2024-01-16T16:05:47;1.00;38.50
26051;DHT22;13825;53.496;10.020;2024-01-16T16:08:16;1.90;1.00
26051;DHT22;13825;53.496;10.020;2024-01-16T16:10:48;0.60;10.00
26051;DHT22;13825;53.496;10.020;2024-01-16T16:13:20;1.20;1.00
26051;DHT22;13825;53.496;10.020;2024-01-16T16:16:03;2.10;1.70
26051;DHT22;13825;53.496;10.020;2024-01-16T16:18:32;0.90;91.10
26051;DHT22;13825;53.496;10.020;2024-01-16T16:21:04;0.70;99.90
26051;DHT22;13825;53.496;10.020;2024-01-16T16:23:31;0.80;8.90
26051;DHT22;13825;53.496;10.020;2024-01-16T16:25:58;1.90;47.50
26051;DHT22;13825;53.496;10.020;2024-01-16T16:28:27;0.40;99.90
26051;DHT22;13825;53.496;10.020;2024-01-16T16:30:59;1.30;99.90
26051;DHT22;13825;53.496;10.020;2024-01-16T16:33:29;2.20;1.00
26051;DHT22;13825;53.496;10.020;2024-01-16T16:36:00;0.40;80.70
26051;DHT22;13825;53.496;10.020;2024-01-16T16:38:31;1.30;1.00
26051;DHT22;13825;53.496;10.020;2024-01-16T16:40:59;0.60;1.00
26051;DHT22;13825;53.496;10.020;2024-01-16T16:43:27;0.80;99.90
26051;DHT22;13825;53.496;10.020;2024-01-16T16:45:59;0.90;1.00
26051;DHT22;13825;53.496;10.020;2024-01-16T16:48:25;1.10;61.30
26051;DHT22;13825;53.496;10.020;2024-01-16T16:50:52;0.90;99.90
26051;DHT22;13825;53.496;10.020;2024-01-16T16:53:19;0.60;99.90
26051;DHT22;13825;53.496;10.020;2024-01-16T16:55:48;0.40;99.90
26051;DHT22;13825;53.496;10.020;2024-01-16T16:58:15;0.50;13.70
26051;DHT22;13825;53.496;10.020;2024-01-16T17:00:42;1.60;66.50
26051;DHT22;13825;53.496;10.020;2024-01-16T17:03:09;0.60;84.90
26051;DHT22;13825;53.496;10.020;2024-01-16T17:05:37;0.50;99.90
26051;DHT22;13825;53.496;10.020;2024-01-16T17:08:06;0.80;56.80
26051;DHT22;13825;53.496;10.020;2024-01-16T17:10:37;0.80;99.90
26051;DHT22;13825;53.496;10.020;2024-01-16T17:13:06;0.70;41.20
26051;DHT22;13825;53.496;10.020;2024-01-16T17:15:45;1.90;37.50
26051;DHT22;13825;53.496;10.020;2024-01-16T17:18:16;1.10;1.00
26051;DHT22;13825;53.496;10.020;2024-01-16T17:20:45;0.80;99.90
26051;DHT22;13825;53.496;10.020;2024-01-16T17:23:12;0.70;99.90
26051;DHT22;13825;53.496;10.020;2024-01-16T17:25:40;0.50;99.90
26051;DHT22;13825;53.496;10.020;2024-01-16T17:28:08;1.00;27.70
26051;DHT22;13825;53.496;10.020;2024-01-16T17:30:35;0.60;90.70
26051;DHT22;13825;53.496;10.020;2024-01-16T17:33:02;0.60;76.40
26051;DHT22;13825;53.496;10.020;2024-01-16T17:35:29;0.60;89.10
26051;DHT22;13825;53.496;10.020;2024-01-16T17:38:01;0.60;99.90
26051;DHT22;13825;53.496;10.020;2024-01-16T17:40:38;1.00;99.90
26051;DHT22;13825;53.496;10.020;2024-01-16T17:43:05;0.30;99.90
26051;DHT22;13825;53.496;10.020;2024-01-16T17:48:23;0.90;99.90
26051;DHT22;13825;53.496;10.020;2024-01-16T17:50:52;0.70;99.90
26051;DHT22;13825;53.496;10.020;2024-01-16T17:53:19;0.90;99.90
26051;DHT22;13825;53.496;10.020;2024-01-16T17:55:47;1.30;99.90
26051;DHT22;13825;53.496;10.020;2024-01-16T17:58:17;0.40;99.90
26051;DHT22;13825;53.496;10.020;2024-01-16T18:00:51;1.10;99.90
26051;DHT22;13825;53.496;10.020;2024-01-16T18:03:39;0.70;48.90
26051;DHT22;13825;53.496;10.020;2024-01-16T18:06:20;0.80;86.20
26051;DHT22;13825;53.496;10.020;2024-01-16T18:08:47;0.20;99.90
26051;DHT22;13825;53.496;10.020;2024-01-16T18:11:23;1.40;99.90
26051;DHT22;13825;53.496;10.020;2024-01-16T18:14:26;0.80;1.00
26051;DHT22;13825;53.496;10.020;2024-01-16T18:16:56;1.40;4.50
26051;DHT22;13825;53.496;10.020;2024-01-16T18:19:38;0.90;1.00
26051;DHT22;13825;53.496;10.020;2024-01-16T18:22:08;1.70;25.50
26051;DHT22;13825;53.496;10.020;2024-01-16T18:24:37;-0.10;1.00
26051;DHT22;13825;53.496;10.020;2024-01-16T18:27:05;0.30;95.40
26051;DHT22;13825;53.496;10.020;2024-01-16T18:29:54;0.90;94.50
26051;DHT22;13825;53.496;10.020;2024-01-16T18:32:49;0.10;1.00
26051;DHT22;13825;53.496;10.020;2024-01-16T18:41:27;0.50;1.00
26051;DHT22;13825;53.496;10.020;2024-01-16T18:43:57;1.10;1.00
26051;DHT22;13825;53.496;10.020;2024-01-16T18:46:44;-0.10;55.00
26051;DHT22;13825;53.496;10.020;2024-01-16T18:49:44;-0.10;1.00
26051;DHT22;13825;53.496;10.020;2024-01-16T18:52:28;-0.10;1.00
26051;DHT22;13825;53.496;10.020;2024-01-16T18:55:05;0.30;1.00
26051;DHT22;13825;53.496;10.020;2024-01-16T18:57:37;-0.20;1.00
26051;DHT22;13825;53.496;10.020;2024-01-16T19:02:54;0.30;1.00
26051;DHT22;13825;53.496;10.020;2024-01-16T19:05:25;0.50;73.20
26051;DHT22;13825;53.496;10.020;2024-01-16T19:07:55;-0.70;1.00
26051;DHT22;13825;53.496;10.020;2024-01-16T19:10:34;0.20;37.20
26051;DHT22;13825;53.496;10.020;2024-01-16T19:13:24;0.40;1.00
26051;DHT22;13825;53.496;10.020;2024-01-16T19:15:53;0.10;1.00
26051;DHT22;13825;53.496;10.020;2024-01-16T19:18:34;0.30;1.00
26051;DHT22;13825;53.496;10.020;2024-01-16T19:21:19;0.30;1.00
26051;DHT22;13825;53.496;10.020;2024-01-16T19:23:46;0.30;1.00
26051;DHT22;13825;53.496;10.020;2024-01-16T19:26:13;-0.50;1.00
26051;DHT22;13825;53.496;10.020;2024-01-16T19:28:50;0.10;10.50
26051;DHT22;13825;53.496;10.020;2024-01-16T19:31:18;-0.10;1.00
26051;DHT22;13825;53.496;10.020;2024-01-16T19:34:06;1.10;5.00
26051;DHT22;13825;53.496;10.020;2024-01-16T19:39:35;0.30;1.00
26051;DHT22;13825;53.496;10.020;2024-01-16T19:42:07;0.00;1.00
26051;DHT22;13825;53.496;10.020;2024-01-16T19:47:29;-0.60;1.00
26051;DHT22;13825;53.496;10.020;2024-01-16T19:50:04;0.00;1.00
26051;DHT22;13825;53.496;10.020;2024-01-16T19:52:58;0.20;1.00
26051;DHT22;13825;53.496;10.020;2024-01-16T19:55:28;-0.50;1.00
26051;DHT22;13825;53.496;10.020;2024-01-16T19:57:57;-1.20;1.00
26051;DHT22;13825;53.496;10.020;2024-01-16T20:00:24;-0.30;1.00
26051;DHT22;13825;53.496;10.020;2024-01-16T20:02:55;-0.50;1.00
26051;DHT22;13825;53.496;10.020;2024-01-16T20:05:40;-0.60;1.00
26051;DHT22;13825;53.496;10.020;2024-01-16T20:08:08;-0.30;1.00
26051;DHT22;13825;53.496;10.020;2024-01-16T20:10:36;-0.60;1.00
26051;DHT22;13825;53.496;10.020;2024-01-16T20:13:04;-0.30;1.00
26051;DHT22;13825;53.496;10.020;2024-01-16T20:15:32;-0.40;1.00
26051;DHT22;13825;53.496;10.020;2024-01-16T20:18:00;-0.80;1.00
26051;DHT22;13825;53.496;10.020;2024-01-16T20:20:29;0.60;1.00
26051;DHT22;13825;53.496;10.020;2024-01-16T20:22:56;-0.90;15.00
26051;DHT22;13825;53.496;10.020;2024-01-16T20:25:23;-0.90;9.00
26051;DHT22;13825;53.496;10.020;2024-01-16T20:27:51;-0.90;7.20